sensor_id;sensor_type;location;lat;lon;timestamp;P1;durP1;ratioP1;P2;durP2;ratioP2
2650;SDS011;1335;48.180;16.342;2024-03-25T00:02:07;1.13;;;1.00;;
2650;SDS011;1335;48.180;16.342;2024-03-25T00:04:35;0.50;;;0.40;;
2650;SDS011;1335;48.180;16.342;2024-03-25T00:07:01;0.90;;;0.53;;
2650;SDS011;1335;48.180;16.342;2024-03-25T00:09:28;0.83;;;0.63;;
2650;SDS011;1335;48.180;16.342;2024-03-25T00:11:54;3.13;;;0.50;;
2650;SDS011;1335;48.180;16.342;2024-03-25T00:14:22;0.90;;;0.57;;
2650;SDS011;1335;48.180;16.342;2024-03-25T00:16:50;0.60;;;0.50;;
2650;SDS011;1335;48.180;16.342;2024-03-25T00:19:17;1.10;;;0.60;;
2650;SDS011;1335;48.180;16.342;2024-03-25T00:21:44;2.10;;;0.70;;
2650;SDS011;1335;48.180;16.342;2024-03-25T00:24:11;0.60;;;0.60;;
2650;SDS011;1335;48.180;16.342;2024-03-25T00:26:37;1.57;;;0.53;;
2650;SDS011;1335;48.180;16.342;2024-03-25T00:29:05;2.20;;;0.57;;
2650;SDS011;1335;48.180;16.342;2024-03-25T00:31:31;0.67;;;0.60;;
2650;SDS011;1335;48.180;16.342;2024-03-25T00:34:00;1.13;;;0.50;;
2650;SDS011;1335;48.180;16.342;2024-03-25T00:36:26;0.60;;;0.60;;
2650;SDS011;1335;48.180;16.342;2024-03-25T00:38:53;0.90;;;0.73;;
2650;SDS011;1335;48.180;16.342;2024-03-25T00:41:20;1.13;;;0.50;;
2650;SDS011;1335;48.180;16.342;2024-03-25T00:43:47;0.50;;;0.40;;
2650;SDS011;1335;48.180;16.342;2024-03-25T00:46:14;0.90;;;0.70;;
2650;SDS011;1335;48.180;16.342;2024-03-25T00:48:42;0.70;;;0.40;;
2650;SDS011;1335;48.180;16.342;2024-03-25T00:51:09;1.00;;;0.87;;
2650;SDS011;1335;48.180;16.342;2024-03-25T00:53:37;0.60;;;0.60;;
2650;SDS011;1335;48.180;16.342;2024-03-25T00:56:03;1.90;;;0.70;;
2650;SDS011;1335;48.180;16.342;2024-03-25T00:58:31;0.80;;;0.60;;
2650;SDS011;1335;48.180;16.342;2024-03-25T01:00:57;0.90;;;0.83;;
2650;SDS011;1335;48.180;16.342;2024-03-25T01:03:24;3.07;;;0.87;;
2650;SDS011;1335;48.180;16.342;2024-03-25T01:05:51;2.10;;;0.67;;
2650;SDS011;1335;48.180;16.342;2024-03-25T01:08:19;0.87;;;0.87;;
2650;SDS011;1335;48.180;16.342;2024-03-25T01:10:46;0.83;;;0.73;;
2650;SDS011;1335;48.180;16.342;2024-03-25T01:13:13;0.80;;;0.80;;
2650;SDS011;1335;48.180;16.342;2024-03-25T01:15:39;2.40;;;0.90;;
2650;SDS011;1335;48.180;16.342;2024-03-25T01:18:07;0.83;;;0.83;;
2650;SDS011;1335;48.180;16.342;2024-03-25T01:20:33;1.50;;;0.80;;
2650;SDS011;1335;48.180;16.342;2024-03-25T01:23:00;1.27;;;0.80;;
2650;SDS011;1335;48.180;16.342;2024-03-25T01:25:28;1.77;;;0.90;;
2650;SDS011;1335;48.180;16.342;2024-03-25T01:27:55;1.33;;;0.80;;
2650;SDS011;1335;48.180;16.342;2024-03-25T01:30:22;2.00;;;1.10;;
2650;SDS011;1335;48.180;16.342;2024-03-25T01:32:49;1.30;;;1.20;;
2650;SDS011;1335;48.180;16.342;2024-03-25T01:35:15;1.93;;;0.90;;
2650;SDS011;1335;48.180;16.342;2024-03-25T01:37:43;1.03;;;0.90;;
2650;SDS011;1335;48.180;16.342;2024-03-25T01:40:09;1.50;;;1.30;;
2650;SDS011;1335;48.180;16.342;2024-03-25T01:42:38;1.07;;;0.90;;
2650;SDS011;1335;48.180;16.342;2024-03-25T01:45:04;1.43;;;1.33;;
2650;SDS011;1335;48.180;16.342;2024-03-25T01:47:32;1.03;;;0.60;;
2650;SDS011;1335;48.180;16.342;2024-03-25T01:50:00;2.57;;;1.40;;
2650;SDS011;1335;48.180;16.342;2024-03-25T01:52:28;2.53;;;1.10;;
2650;SDS011;1335;48.180;16.342;2024-03-25T01:54:55;2.03;;;1.37;;
2650;SDS011;1335;48.180;16.342;2024-03-25T01:57:22;1.03;;;1.00;;
2650;SDS011;1335;48.180;16.342;2024-03-25T01:59:50;1.53;;;1.43;;
2650;SDS011;1335;48.180;16.342;2024-03-25T02:02:18;1.83;;;1.00;;
2650;SDS011;1335;48.180;16.342;2024-03-25T02:04:44;3.17;;;0.73;;
2650;SDS011;1335;48.180;16.342;2024-03-25T02:07:12;1.10;;;0.77;;
2650;SDS011;1335;48.180;16.342;2024-03-25T02:09:38;0.63;;;0.63;;
2650;SDS011;1335;48.180;16.342;2024-03-25T02:12:07;1.20;;;0.77;;
2650;SDS011;1335;48.180;16.342;2024-03-25T02:14:34;0.80;;;0.60;;
2650;SDS011;1335;48.180;16.342;2024-03-25T02:17:03;0.60;;;0.60;;
2650;SDS011;1335;48.180;16.342;2024-03-25T02:19:30;1.00;;;0.60;;
2650;SDS011;1335;48.180;16.342;2024-03-25T02:21:58;0.83;;;0.70;;
2650;SDS011;1335;48.180;16.342;2024-03-25T02:24:24;0.63;;;0.63;;
2650;SDS011;1335;48.180;16.342;2024-03-25T02:26:54;1.00;;;0.90;;
2650;SDS011;1335;48.180;16.342;2024-03-25T02:29:21;0.97;;;0.60;;
2650;SDS011;1335;48.180;16.342;2024-03-25T02:31:48;1.27;;;1.17;;
2650;SDS011;1335;48.180;16.342;2024-03-25T02:34:18;1.97;;;1.30;;
2650;SDS011;1335;48.180;16.342;2024-03-25T02:36:45;1.73;;;1.20;;
2650;SDS011;1335;48.180;16.342;2024-03-25T02:39:12;1.57;;;1.47;;
2650;SDS011;1335;48.180;16.342;2024-03-25T02:41:39;1.67;;;1.03;;
2650;SDS011;1335;48.180;16.342;2024-03-25T02:44:07;1.43;;;1.10;;
2650;SDS011;1335;48.180;16.342;2024-03-25T02:46:34;2.77;;;1.43;;
2650;SDS011;1335;48.180;16.342;2024-03-25T02:49:01;1.93;;;1.10;;
2650;SDS011;1335;48.180;16.342;2024-03-25T02:51:28;1.60;;;1.50;;
2650;SDS011;1335;48.180;16.342;2024-03-25T02:53:54;2.33;;;1.07;;
2650;SDS011;1335;48.180;16.342;2024-03-25T02:56:21;1.27;;;1.17;;
2650;SDS011;1335;48.180;16.342;2024-03-25T02:58:48;2.13;;;1.40;;
2650;SDS011;1335;48.180;16.342;2024-03-25T03:01:16;2.13;;;1.20;;
2650;SDS011;1335;48.180;16.342;2024-03-25T03:03:43;1.57;;;1.47;;
2650;SDS011;1335;48.180;16.342;2024-03-25T03:06:10;1.40;;;1.30;;
2650;SDS011;1335;48.180;16.342;2024-03-25T03:08:36;2.20;;;1.80;;
2650;SDS011;1335;48.180;16.342;2024-03-25T03:11:03;1.97;;;1.83;;
2650;SDS011;1335;48.180;16.342;2024-03-25T03:13:30;1.83;;;1.70;;
2650;SDS011;1335;48.180;16.342;2024-03-25T03:15:57;2.20;;;2.00;;
2650;SDS011;1335;48.180;16.342;2024-03-25T03:18:25;2.07;;;1.87;;
2650;SDS011;1335;48.180;16.342;2024-03-25T03:20:52;2.13;;;1.93;;
2650;SDS011;1335;48.180;16.342;2024-03-25T03:23:20;4.77;;;2.00;;
2650;SDS011;1335;48.180;16.342;2024-03-25T03:25:48;2.00;;;1.83;;
2650;SDS011;1335;48.180;16.342;2024-03-25T03:28:14;2.23;;;2.03;;
2650;SDS011;1335;48.180;16.342;2024-03-25T03:30:41;2.10;;;1.37;;
2650;SDS011;1335;48.180;16.342;2024-03-25T03:33:07;1.50;;;1.40;;
2650;SDS011;1335;48.180;16.342;2024-03-25T03:35:36;2.03;;;1.70;;
2650;SDS011;1335;48.180;16.342;2024-03-25T03:38:02;2.40;;;1.53;;
2650;SDS011;1335;48.180;16.342;2024-03-25T03:40:31;2.27;;;1.60;;
2650;SDS011;1335;48.180;16.342;2024-03-25T03:42:58;2.27;;;1.83;;
2650;SDS011;1335;48.180;16.342;2024-03-25T03:45:25;1.80;;;1.57;;
2650;SDS011;1335;48.180;16.342;2024-03-25T03:47:51;1.70;;;1.50;;
2650;SDS011;1335;48.180;16.342;2024-03-25T03:50:19;2.00;;;1.70;;
2650;SDS011;1335;48.180;16.342;2024-03-25T03:52:46;1.87;;;1.60;;
2650;SDS011;1335;48.180;16.342;2024-03-25T03:55:13;1.60;;;1.50;;
2650;SDS011;1335;48.180;16.342;2024-03-25T03:57:40;1.53;;;1.43;;
2650;SDS011;1335;48.180;16.342;2024-03-25T04:00:08;2.23;;;2.03;;
2650;SDS011;1335;48.180;16.342;2024-03-25T04:02:36;4.83;;;3.30;;
2650;SDS011;1335;48.180;16.342;2024-03-25T04:05:04;1.80;;;1.70;;
2650;SDS011;1335;48.180;16.342;2024-03-25T04:07:31;2.77;;;1.63;;
2650;SDS011;1335;48.180;16.342;2024-03-25T04:10:00;1.83;;;1.70;;
2650;SDS011;1335;48.180;16.342;2024-03-25T04:12:26;1.47;;;1.37;;
2650;SDS011;1335;48.180;16.342;2024-03-25T04:14:53;1.90;;;1.80;;
2650;SDS011;1335;48.180;16.342;2024-03-25T04:17:21;2.33;;;1.80;;
2650;SDS011;1335;48.180;16.342;2024-03-25T04:19:48;2.30;;;1.50;;
2650;SDS011;1335;48.180;16.342;2024-03-25T04:22:14;1.90;;;1.80;;
2650;SDS011;1335;48.180;16.342;2024-03-25T04:24:42;2.17;;;1.80;;
2650;SDS011;1335;48.180;16.342;2024-03-25T04:27:10;2.33;;;1.70;;
2650;SDS011;1335;48.180;16.342;2024-03-25T04:29:37;2.27;;;1.80;;
2650;SDS011;1335;48.180;16.342;2024-03-25T04:32:03;1.77;;;1.67;;
2650;SDS011;1335;48.180;16.342;2024-03-25T04:34:31;2.30;;;1.70;;
2650;SDS011;1335;48.180;16.342;2024-03-25T04:36:57;3.90;;;1.97;;
2650;SDS011;1335;48.180;16.342;2024-03-25T04:39:24;2.17;;;2.00;;
2650;SDS011;1335;48.180;16.342;2024-03-25T04:41:50;4.10;;;2.00;;
2650;SDS011;1335;48.180;16.342;2024-03-25T04:44:18;2.00;;;1.80;;
2650;SDS011;1335;48.180;16.342;2024-03-25T04:46:44;2.10;;;2.00;;
2650;SDS011;1335;48.180;16.342;2024-03-25T04:49:11;2.70;;;2.50;;
2650;SDS011;1335;48.180;16.342;2024-03-25T04:51:37;2.80;;;2.10;;
2650;SDS011;1335;48.180;16.342;2024-03-25T04:54:03;1.90;;;1.80;;
2650;SDS011;1335;48.180;16.342;2024-03-25T04:56:30;4.10;;;2.10;;
2650;SDS011;1335;48.180;16.342;2024-03-25T04:58:56;2.97;;;2.47;;
2650;SDS011;1335;48.180;16.342;2024-03-25T05:01:24;2.00;;;1.90;;
2650;SDS011;1335;48.180;16.342;2024-03-25T05:03:50;1.73;;;1.63;;
2650;SDS011;1335;48.180;16.342;2024-03-25T05:06:16;3.00;;;2.10;;
2650;SDS011;1335;48.180;16.342;2024-03-25T05:08:43;2.20;;;2.00;;
2650;SDS011;1335;48.180;16.342;2024-03-25T05:11:09;2.03;;;1.83;;
2650;SDS011;1335;48.180;16.342;2024-03-25T05:13:35;4.77;;;2.00;;
2650;SDS011;1335;48.180;16.342;2024-03-25T05:16:01;3.90;;;1.90;;
2650;SDS011;1335;48.180;16.342;2024-03-25T05:18:29;1.80;;;1.70;;
2650;SDS011;1335;48.180;16.342;2024-03-25T05:20:55;2.87;;;1.93;;
2650;SDS011;1335;48.180;16.342;2024-03-25T05:23:22;1.70;;;1.60;;
2650;SDS011;1335;48.180;16.342;2024-03-25T05:25:48;1.70;;;1.60;;
2650;SDS011;1335;48.180;16.342;2024-03-25T05:28:15;2.63;;;2.00;;
2650;SDS011;1335;48.180;16.342;2024-03-25T05:30:41;2.00;;;1.87;;
2650;SDS011;1335;48.180;16.342;2024-03-25T05:33:07;2.27;;;2.07;;
2650;SDS011;1335;48.180;16.342;2024-03-25T05:35:35;1.60;;;1.43;;
2650;SDS011;1335;48.180;16.342;2024-03-25T05:38:01;2.57;;;1.83;;
2650;SDS011;1335;48.180;16.342;2024-03-25T05:40:28;1.77;;;1.67;;
2650;SDS011;1335;48.180;16.342;2024-03-25T05:42:54;2.63;;;1.70;;
2650;SDS011;1335;48.180;16.342;2024-03-25T05:45:20;1.83;;;1.73;;
2650;SDS011;1335;48.180;16.342;2024-03-25T05:47:47;1.73;;;1.63;;
2650;SDS011;1335;48.180;16.342;2024-03-25T05:50:13;2.07;;;1.80;;
2650;SDS011;1335;48.180;16.342;2024-03-25T05:52:41;4.30;;;2.00;;
2650;SDS011;1335;48.180;16.342;2024-03-25T05:55:07;2.50;;;2.00;;
2650;SDS011;1335;48.180;16.342;2024-03-25T05:57:34;3.33;;;2.27;;
2650;SDS011;1335;48.180;16.342;2024-03-25T06:00:00;1.53;;;1.43;;
2650;SDS011;1335;48.180;16.342;2024-03-25T06:02:27;1.57;;;1.40;;
2650;SDS011;1335;48.180;16.342;2024-03-25T06:04:54;1.50;;;1.40;;
2650;SDS011;1335;48.180;16.342;2024-03-25T06:07:20;2.30;;;1.63;;
2650;SDS011;1335;48.180;16.342;2024-03-25T06:09:48;3.40;;;1.90;;
2650;SDS011;1335;48.180;16.342;2024-03-25T06:12:14;1.93;;;1.73;;
2650;SDS011;1335;48.180;16.342;2024-03-25T06:14:41;2.50;;;1.60;;
2650;SDS011;1335;48.180;16.342;2024-03-25T06:17:07;5.57;;;1.73;;
2650;SDS011;1335;48.180;16.342;2024-03-25T06:19:33;5.03;;;1.60;;
2650;SDS011;1335;48.180;16.342;2024-03-25T06:22:00;1.83;;;1.57;;
2650;SDS011;1335;48.180;16.342;2024-03-25T06:24:26;2.43;;;2.20;;
2650;SDS011;1335;48.180;16.342;2024-03-25T06:26:53;1.87;;;1.70;;
2650;SDS011;1335;48.180;16.342;2024-03-25T06:29:20;2.07;;;1.77;;
2650;SDS011;1335;48.180;16.342;2024-03-25T06:31:47;2.70;;;2.00;;
2650;SDS011;1335;48.180;16.342;2024-03-25T06:34:32;4.57;;;2.33;;
2650;SDS011;1335;48.180;16.342;2024-03-25T06:36:58;3.50;;;2.37;;
2650;SDS011;1335;48.180;16.342;2024-03-25T06:39:24;6.10;;;2.17;;
2650;SDS011;1335;48.180;16.342;2024-03-25T06:41:51;2.60;;;1.97;;
2650;SDS011;1335;48.180;16.342;2024-03-25T06:44:18;2.37;;;2.17;;
2650;SDS011;1335;48.180;16.342;2024-03-25T06:46:45;1.90;;;1.57;;
2650;SDS011;1335;48.180;16.342;2024-03-25T06:49:11;2.47;;;2.27;;
2650;SDS011;1335;48.180;16.342;2024-03-25T06:51:37;2.43;;;2.00;;
2650;SDS011;1335;48.180;16.342;2024-03-25T06:54:03;2.20;;;2.00;;
2650;SDS011;1335;48.180;16.342;2024-03-25T06:56:30;2.83;;;2.07;;
2650;SDS011;1335;48.180;16.342;2024-03-25T06:58:56;4.03;;;2.27;;
2650;SDS011;1335;48.180;16.342;2024-03-25T07:01:24;5.80;;;4.20;;
2650;SDS011;1335;48.180;16.342;2024-03-25T07:03:50;2.20;;;1.80;;
2650;SDS011;1335;48.180;16.342;2024-03-25T07:06:16;5.40;;;2.13;;
2650;SDS011;1335;48.180;16.342;2024-03-25T07:08:43;1.80;;;1.70;;
2650;SDS011;1335;48.180;16.342;2024-03-25T07:11:09;3.00;;;1.50;;
2650;SDS011;1335;48.180;16.342;2024-03-25T07:13:35;1.87;;;1.70;;
2650;SDS011;1335;48.180;16.342;2024-03-25T07:16:02;4.30;;;2.27;;
2650;SDS011;1335;48.180;16.342;2024-03-25T07:18:29;2.03;;;1.93;;
2650;SDS011;1335;48.180;16.342;2024-03-25T07:20:56;4.43;;;1.87;;
2650;SDS011;1335;48.180;16.342;2024-03-25T07:23:22;2.03;;;1.80;;
2650;SDS011;1335;48.180;16.342;2024-03-25T07:25:48;2.03;;;1.70;;
2650;SDS011;1335;48.180;16.342;2024-03-25T07:28:15;2.30;;;1.70;;
2650;SDS011;1335;48.180;16.342;2024-03-25T07:30:41;2.20;;;1.53;;
2650;SDS011;1335;48.180;16.342;2024-03-25T07:33:08;2.17;;;1.60;;
2650;SDS011;1335;48.180;16.342;2024-03-25T07:35:35;2.60;;;1.47;;
2650;SDS011;1335;48.180;16.342;2024-03-25T07:38:02;1.43;;;1.23;;
2650;SDS011;1335;48.180;16.342;2024-03-25T07:40:29;2.37;;;1.57;;
2650;SDS011;1335;48.180;16.342;2024-03-25T07:42:56;2.50;;;1.50;;
2650;SDS011;1335;48.180;16.342;2024-03-25T07:45:22;2.23;;;1.43;;
2650;SDS011;1335;48.180;16.342;2024-03-25T07:47:48;1.63;;;1.40;;
2650;SDS011;1335;48.180;16.342;2024-03-25T07:50:14;1.57;;;1.40;;
2650;SDS011;1335;48.180;16.342;2024-03-25T07:52:42;2.47;;;1.57;;
2650;SDS011;1335;48.180;16.342;2024-03-25T07:55:08;3.13;;;1.60;;
2650;SDS011;1335;48.180;16.342;2024-03-25T07:57:35;1.73;;;1.20;;
2650;SDS011;1335;48.180;16.342;2024-03-25T08:00:01;1.80;;;1.20;;
2650;SDS011;1335;48.180;16.342;2024-03-25T08:02:28;4.23;;;1.23;;
2650;SDS011;1335;48.180;16.342;2024-03-25T08:04:54;1.50;;;1.07;;
2650;SDS011;1335;48.180;16.342;2024-03-25T08:07:20;1.23;;;0.67;;
2650;SDS011;1335;48.180;16.342;2024-03-25T08:09:48;2.90;;;1.10;;
2650;SDS011;1335;48.180;16.342;2024-03-25T08:12:14;1.00;;;1.00;;
2650;SDS011;1335;48.180;16.342;2024-03-25T08:14:41;1.63;;;1.13;;
2650;SDS011;1335;48.180;16.342;2024-03-25T08:17:07;2.30;;;1.10;;
2650;SDS011;1335;48.180;16.342;2024-03-25T08:19:33;1.67;;;1.20;;
2650;SDS011;1335;48.180;16.342;2024-03-25T08:22:00;2.17;;;1.10;;
2650;SDS011;1335;48.180;16.342;2024-03-25T08:24:26;2.73;;;1.20;;
2650;SDS011;1335;48.180;16.342;2024-03-25T08:26:54;1.00;;;1.00;;
2650;SDS011;1335;48.180;16.342;2024-03-25T08:29:20;3.83;;;1.17;;
2650;SDS011;1335;48.180;16.342;2024-03-25T08:31:46;4.37;;;1.23;;
2650;SDS011;1335;48.180;16.342;2024-03-25T08:34:13;1.60;;;1.03;;
2650;SDS011;1335;48.180;16.342;2024-03-25T08:36:39;1.57;;;1.27;;
2650;SDS011;1335;48.180;16.342;2024-03-25T08:39:05;1.57;;;1.47;;
2650;SDS011;1335;48.180;16.342;2024-03-25T08:41:32;1.20;;;1.10;;
2650;SDS011;1335;48.180;16.342;2024-03-25T08:44:00;1.43;;;1.10;;
2650;SDS011;1335;48.180;16.342;2024-03-25T08:46:26;2.07;;;1.37;;
2650;SDS011;1335;48.180;16.342;2024-03-25T08:48:52;2.70;;;1.00;;
2650;SDS011;1335;48.180;16.342;2024-03-25T08:51:18;2.10;;;1.00;;
2650;SDS011;1335;48.180;16.342;2024-03-25T08:53:45;1.40;;;1.30;;
2650;SDS011;1335;48.180;16.342;2024-03-25T08:56:11;1.93;;;1.17;;
2650;SDS011;1335;48.180;16.342;2024-03-25T08:58:37;2.00;;;1.17;;
2650;SDS011;1335;48.180;16.342;2024-03-25T09:01:05;1.60;;;1.50;;
2650;SDS011;1335;48.180;16.342;2024-03-25T09:03:31;3.17;;;1.40;;
2650;SDS011;1335;48.180;16.342;2024-03-25T09:05:57;0.90;;;0.90;;
2650;SDS011;1335;48.180;16.342;2024-03-25T09:08:24;2.20;;;1.23;;
2650;SDS011;1335;48.180;16.342;2024-03-25T09:10:50;1.13;;;0.90;;
2650;SDS011;1335;48.180;16.342;2024-03-25T09:13:29;1.90;;;0.97;;
2650;SDS011;1335;48.180;16.342;2024-03-25T09:15:55;3.33;;;1.00;;
2650;SDS011;1335;48.180;16.342;2024-03-25T09:18:23;3.70;;;1.00;;
2650;SDS011;1335;48.180;16.342;2024-03-25T09:20:49;1.43;;;0.63;;
2650;SDS011;1335;48.180;16.342;2024-03-25T09:23:15;1.00;;;0.97;;
2650;SDS011;1335;48.180;16.342;2024-03-25T09:25:50;0.97;;;0.97;;
2650;SDS011;1335;48.180;16.342;2024-03-25T09:28:17;1.97;;;0.90;;
2650;SDS011;1335;48.180;16.342;2024-03-25T09:30:43;1.20;;;0.90;;
2650;SDS011;1335;48.180;16.342;2024-03-25T09:33:09;1.60;;;0.97;;
2650;SDS011;1335;48.180;16.342;2024-03-25T09:35:37;1.50;;;0.87;;
2650;SDS011;1335;48.180;16.342;2024-03-25T09:38:03;1.10;;;1.00;;
2650;SDS011;1335;48.180;16.342;2024-03-25T09:40:30;1.90;;;0.93;;
2650;SDS011;1335;48.180;16.342;2024-03-25T09:42:56;1.30;;;1.00;;
2650;SDS011;1335;48.180;16.342;2024-03-25T09:45:24;1.73;;;1.20;;
2650;SDS011;1335;48.180;16.342;2024-03-25T09:47:51;3.17;;;1.13;;
2650;SDS011;1335;48.180;16.342;2024-03-25T09:50:17;1.10;;;1.00;;
2650;SDS011;1335;48.180;16.342;2024-03-25T09:52:46;1.47;;;1.10;;
2650;SDS011;1335;48.180;16.342;2024-03-25T09:55:12;2.70;;;1.10;;
2650;SDS011;1335;48.180;16.342;2024-03-25T09:57:38;0.77;;;0.77;;
2650;SDS011;1335;48.180;16.342;2024-03-25T10:00:05;3.20;;;1.20;;
2650;SDS011;1335;48.180;16.342;2024-03-25T10:02:33;1.37;;;0.80;;
2650;SDS011;1335;48.180;16.342;2024-03-25T10:05:00;4.23;;;0.97;;
2650;SDS011;1335;48.180;16.342;2024-03-25T10:07:26;5.73;;;0.90;;
2650;SDS011;1335;48.180;16.342;2024-03-25T10:09:54;1.47;;;1.30;;
2650;SDS011;1335;48.180;16.342;2024-03-25T10:12:21;1.10;;;1.00;;
2650;SDS011;1335;48.180;16.342;2024-03-25T10:14:47;1.90;;;1.07;;
2650;SDS011;1335;48.180;16.342;2024-03-25T10:17:13;2.63;;;1.13;;
2650;SDS011;1335;48.180;16.342;2024-03-25T10:19:39;6.93;;;1.47;;
2650;SDS011;1335;48.180;16.342;2024-03-25T10:22:06;1.23;;;0.60;;
2650;SDS011;1335;48.180;16.342;2024-03-25T10:24:36;1.90;;;0.87;;
2650;SDS011;1335;48.180;16.342;2024-03-25T10:27:04;0.93;;;0.83;;
2650;SDS011;1335;48.180;16.342;2024-03-25T10:29:30;2.00;;;1.10;;
2650;SDS011;1335;48.180;16.342;2024-03-25T10:32:00;1.47;;;1.10;;
2650;SDS011;1335;48.180;16.342;2024-03-25T10:34:26;2.90;;;0.80;;
2650;SDS011;1335;48.180;16.342;2024-03-25T10:36:54;1.60;;;1.03;;
2650;SDS011;1335;48.180;16.342;2024-03-25T10:39:23;2.43;;;1.03;;
2650;SDS011;1335;48.180;16.342;2024-03-25T10:41:52;2.43;;;1.00;;
2650;SDS011;1335;48.180;16.342;2024-03-25T10:44:20;3.73;;;1.07;;
2650;SDS011;1335;48.180;16.342;2024-03-25T10:46:47;1.30;;;1.20;;
2650;SDS011;1335;48.180;16.342;2024-03-25T10:49:15;1.43;;;1.10;;
2650;SDS011;1335;48.180;16.342;2024-03-25T10:51:42;2.10;;;1.03;;
2650;SDS011;1335;48.180;16.342;2024-03-25T10:54:10;5.03;;;1.00;;
2650;SDS011;1335;48.180;16.342;2024-03-25T10:56:37;1.07;;;0.97;;
2650;SDS011;1335;48.180;16.342;2024-03-25T10:59:04;1.63;;;1.10;;
2650;SDS011;1335;48.180;16.342;2024-03-25T11:01:33;0.70;;;0.70;;
2650;SDS011;1335;48.180;16.342;2024-03-25T11:03:59;1.83;;;1.00;;
2650;SDS011;1335;48.180;16.342;2024-03-25T11:06:26;3.13;;;1.00;;
2650;SDS011;1335;48.180;16.342;2024-03-25T11:08:55;1.03;;;0.93;;
2650;SDS011;1335;48.180;16.342;2024-03-25T11:11:22;1.70;;;0.70;;
2650;SDS011;1335;48.180;16.342;2024-03-25T11:13:48;1.50;;;1.10;;
2650;SDS011;1335;48.180;16.342;2024-03-25T11:16:25;1.53;;;1.43;;
2650;SDS011;1335;48.180;16.342;2024-03-25T11:18:53;1.50;;;1.07;;
2650;SDS011;1335;48.180;16.342;2024-03-25T11:21:24;1.17;;;0.80;;
2650;SDS011;1335;48.180;16.342;2024-03-25T11:23:50;1.17;;;0.90;;
2650;SDS011;1335;48.180;16.342;2024-03-25T11:26:18;1.20;;;0.80;;
2650;SDS011;1335;48.180;16.342;2024-03-25T11:28:45;1.13;;;0.97;;
2650;SDS011;1335;48.180;16.342;2024-03-25T11:31:11;1.07;;;0.97;;
2650;SDS011;1335;48.180;16.342;2024-03-25T11:33:37;1.23;;;1.00;;
2650;SDS011;1335;48.180;16.342;2024-03-25T11:36:06;0.93;;;0.93;;
2650;SDS011;1335;48.180;16.342;2024-03-25T11:38:32;1.60;;;0.87;;
2650;SDS011;1335;48.180;16.342;2024-03-25T11:40:59;1.40;;;1.30;;
2650;SDS011;1335;48.180;16.342;2024-03-25T11:43:25;2.80;;;1.27;;
2650;SDS011;1335;48.180;16.342;2024-03-25T11:45:52;4.33;;;1.20;;
2650;SDS011;1335;48.180;16.342;2024-03-25T11:48:19;1.23;;;0.80;;
2650;SDS011;1335;48.180;16.342;2024-03-25T11:50:45;3.93;;;1.43;;
2650;SDS011;1335;48.180;16.342;2024-03-25T11:53:14;2.27;;;1.00;;
2650;SDS011;1335;48.180;16.342;2024-03-25T11:55:40;1.67;;;1.23;;
2650;SDS011;1335;48.180;16.342;2024-03-25T11:58:07;1.30;;;0.90;;
2650;SDS011;1335;48.180;16.342;2024-03-25T12:00:33;1.13;;;0.90;;
2650;SDS011;1335;48.180;16.342;2024-03-25T12:03:00;2.07;;;0.83;;
2650;SDS011;1335;48.180;16.342;2024-03-25T12:05:26;3.80;;;1.20;;
2650;SDS011;1335;48.180;16.342;2024-03-25T12:07:52;2.30;;;0.90;;
2650;SDS011;1335;48.180;16.342;2024-03-25T12:10:20;2.40;;;1.20;;
2650;SDS011;1335;48.180;16.342;2024-03-25T12:13:18;4.40;;;1.10;;
2650;SDS011;1335;48.180;16.342;2024-03-25T12:15:45;3.33;;;1.13;;
2650;SDS011;1335;48.180;16.342;2024-03-25T12:18:11;2.50;;;0.70;;
2650;SDS011;1335;48.180;16.342;2024-03-25T12:20:37;2.03;;;1.20;;
2650;SDS011;1335;48.180;16.342;2024-03-25T12:23:04;2.20;;;0.87;;
2650;SDS011;1335;48.180;16.342;2024-03-25T12:25:31;2.43;;;1.03;;
2650;SDS011;1335;48.180;16.342;2024-03-25T12:27:58;1.07;;;0.90;;
2650;SDS011;1335;48.180;16.342;2024-03-25T12:30:24;1.00;;;0.90;;
2650;SDS011;1335;48.180;16.342;2024-03-25T12:32:50;1.23;;;0.80;;
2650;SDS011;1335;48.180;16.342;2024-03-25T12:35:17;1.63;;;1.30;;
2650;SDS011;1335;48.180;16.342;2024-03-25T12:37:44;3.37;;;1.70;;
2650;SDS011;1335;48.180;16.342;2024-03-25T12:40:11;1.23;;;1.10;;
2650;SDS011;1335;48.180;16.342;2024-03-25T12:42:39;4.93;;;1.50;;
2650;SDS011;1335;48.180;16.342;2024-03-25T12:45:05;1.20;;;1.10;;
2650;SDS011;1335;48.180;16.342;2024-03-25T12:47:32;3.63;;;1.30;;
2650;SDS011;1335;48.180;16.342;2024-03-25T12:49:58;2.40;;;1.03;;
2650;SDS011;1335;48.180;16.342;2024-03-25T12:52:25;3.33;;;1.20;;
2650;SDS011;1335;48.180;16.342;2024-03-25T12:54:51;1.60;;;0.90;;
2650;SDS011;1335;48.180;16.342;2024-03-25T12:57:17;2.00;;;1.10;;
2650;SDS011;1335;48.180;16.342;2024-03-25T12:59:45;1.20;;;1.10;;
2650;SDS011;1335;48.180;16.342;2024-03-25T13:02:12;0.93;;;0.83;;
2650;SDS011;1335;48.180;16.342;2024-03-25T13:04:38;2.10;;;1.20;;
2650;SDS011;1335;48.180;16.342;2024-03-25T13:07:05;3.23;;;1.10;;
2650;SDS011;1335;48.180;16.342;2024-03-25T13:09:31;1.47;;;1.37;;
2650;SDS011;1335;48.180;16.342;2024-03-25T13:11:58;1.90;;;1.07;;
2650;SDS011;1335;48.180;16.342;2024-03-25T13:14:24;1.60;;;1.10;;
2650;SDS011;1335;48.180;16.342;2024-03-25T13:16:52;1.83;;;1.20;;
2650;SDS011;1335;48.180;16.342;2024-03-25T13:19:18;1.80;;;1.10;;
2650;SDS011;1335;48.180;16.342;2024-03-25T13:21:44;1.93;;;1.53;;
2650;SDS011;1335;48.180;16.342;2024-03-25T13:24:11;1.77;;;1.07;;
2650;SDS011;1335;48.180;16.342;2024-03-25T13:26:37;1.50;;;0.73;;
2650;SDS011;1335;48.180;16.342;2024-03-25T13:29:03;1.13;;;0.90;;
2650;SDS011;1335;48.180;16.342;2024-03-25T13:31:30;1.83;;;1.00;;
2650;SDS011;1335;48.180;16.342;2024-03-25T13:33:58;1.57;;;1.23;;
2650;SDS011;1335;48.180;16.342;2024-03-25T13:36:24;2.03;;;1.50;;
2650;SDS011;1335;48.180;16.342;2024-03-25T13:38:50;1.20;;;0.80;;
2650;SDS011;1335;48.180;16.342;2024-03-25T13:41:17;1.80;;;1.13;;
2650;SDS011;1335;48.180;16.342;2024-03-25T13:43:43;0.93;;;0.87;;
2650;SDS011;1335;48.180;16.342;2024-03-25T13:46:09;2.73;;;1.03;;
2650;SDS011;1335;48.180;16.342;2024-03-25T13:48:36;1.50;;;1.40;;
2650;SDS011;1335;48.180;16.342;2024-03-25T13:51:04;1.70;;;1.20;;
2650;SDS011;1335;48.180;16.342;2024-03-25T13:53:31;2.50;;;1.10;;
2650;SDS011;1335;48.180;16.342;2024-03-25T13:55:57;1.53;;;1.33;;
2650;SDS011;1335;48.180;16.342;2024-03-25T13:58:24;2.00;;;1.30;;
2650;SDS011;1335;48.180;16.342;2024-03-25T14:00:50;1.20;;;1.10;;
2650;SDS011;1335;48.180;16.342;2024-03-25T14:03:16;2.93;;;1.47;;
2650;SDS011;1335;48.180;16.342;2024-03-25T14:05:43;2.57;;;1.27;;
2650;SDS011;1335;48.180;16.342;2024-03-25T14:08:10;2.20;;;1.07;;
2650;SDS011;1335;48.180;16.342;2024-03-25T14:10:37;1.40;;;1.00;;
2650;SDS011;1335;48.180;16.342;2024-03-25T14:13:03;0.83;;;0.80;;
2650;SDS011;1335;48.180;16.342;2024-03-25T14:15:30;1.80;;;0.77;;
2650;SDS011;1335;48.180;16.342;2024-03-25T14:17:56;1.27;;;0.93;;
2650;SDS011;1335;48.180;16.342;2024-03-25T14:20:23;1.40;;;0.90;;
2650;SDS011;1335;48.180;16.342;2024-03-25T14:22:49;1.50;;;1.27;;
2650;SDS011;1335;48.180;16.342;2024-03-25T14:25:17;1.47;;;1.37;;
2650;SDS011;1335;48.180;16.342;2024-03-25T14:27:43;1.77;;;1.20;;
2650;SDS011;1335;48.180;16.342;2024-03-25T14:30:10;1.70;;;1.10;;
2650;SDS011;1335;48.180;16.342;2024-03-25T14:32:36;2.47;;;1.50;;
2650;SDS011;1335;48.180;16.342;2024-03-25T14:35:03;1.07;;;0.97;;
2650;SDS011;1335;48.180;16.342;2024-03-25T14:37:29;2.13;;;1.23;;
2650;SDS011;1335;48.180;16.342;2024-03-25T14:39:55;3.03;;;1.40;;
2650;SDS011;1335;48.180;16.342;2024-03-25T14:42:23;3.60;;;1.43;;
2650;SDS011;1335;48.180;16.342;2024-03-25T14:44:49;3.53;;;1.00;;
2650;SDS011;1335;48.180;16.342;2024-03-25T14:47:16;2.27;;;1.93;;
2650;SDS011;1335;48.180;16.342;2024-03-25T14:49:42;1.80;;;1.30;;
2650;SDS011;1335;48.180;16.342;2024-03-25T14:52:08;2.37;;;1.20;;
2650;SDS011;1335;48.180;16.342;2024-03-25T14:54:35;3.80;;;1.57;;
2650;SDS011;1335;48.180;16.342;2024-03-25T14:57:01;2.00;;;1.03;;
2650;SDS011;1335;48.180;16.342;2024-03-25T14:59:29;2.30;;;1.37;;